Time;durP1;ratioP1;P1;durP2;ratioP2;P2;SDS_P1;SDS_P2;PMS_P1;PMS_P2;Temp;Humidity;BMP_temperature;BMP_pressure;BME280_temperature;BME280_humidity;BME280_pressure;Samples;Min_cycle;Max_cycle;Signal;HPM_P1;HPM_P2
2022/12/31 00:01:05;;;;;;;7.63;2.60;;;;;;;20.16;60.19;100294.78;5089458;28;20035;-67
2022/12/31 00:03:31;;;;;;;5.90;3.00;;;;;;;19.32;64.48;100293.28;5089172;28;20058;-68
2022/12/31 00:05:56;;;;;;;5.55;2.35;;;;;;;20.05;63.93;100298.03;5089065;28;20032;-68
2022/12/31 00:08:21;;;;;;;4.85;1.90;;;;;;;20.26;62.70;100305.69;5089684;28;20119;-68
2022/12/31 00:10:47;;;;;;;2.70;1.60;;;;;;;19.74;65.45;100305.09;5091410;28;20032;-66
2022/12/31 00:13:12;;;;;;;2.67;1.30;;;;;;;18.97;67.37;100304.88;5095375;28;20023;-66
2022/12/31 00:15:39;;;;;;;4.68;1.88;;;;;;;19.09;66.18;100300.69;5089516;28;20024;-66
2022/12/31 00:18:05;;;;;;;6.35;2.22;;;;;;;18.29;72.65;100303.03;5091102;28;20391;-66
2022/12/31 00:20:31;;;;;;;10.35;3.08;;;;;;;19.47;67.41;100307.50;5090929;28;20027;-66
2022/12/31 00:22:56;;;;;;;9.70;2.95;;;;;;;19.50;63.94;100297.56;5101111;28;20036;-66
2022/12/31 00:25:22;;;;;;;9.45;2.58;;;;;;;19.86;64.29;100302.72;5090031;28;20387;-67
2022/12/31 00:27:47;;;;;;;9.88;2.13;;;;;;;19.45;64.69;100320.84;5088975;28;20139;-66
2022/12/31 00:30:13;;;;;;;4.55;1.30;;;;;;;19.88;63.24;100316.72;5088622;28;20020;-66
2022/12/31 00:32:38;;;;;;;8.60;1.35;;;;;;;20.61;59.83;100319.53;5088381;28;20065;-67
2022/12/31 00:35:04;;;;;;;6.40;1.52;;;;;;;19.66;62.59;100315.28;5089938;28;20039;-66
2022/12/31 00:37:30;;;;;;;6.70;1.38;;;;;;;19.66;63.17;100307.31;5104560;28;20490;-67
2022/12/31 00:39:55;;;;;;;6.38;1.48;;;;;;;20.11;61.60;100304.78;5091769;28;20108;-68
2022/12/31 00:42:20;;;;;;;7.05;1.60;;;;;;;19.87;61.04;100312.38;5097286;28;20758;-67
2022/12/31 00:44:46;;;;;;;8.23;1.73;;;;;;;19.98;60.60;100302.84;5089273;28;20063;-68
2022/12/31 00:47:11;;;;;;;5.32;1.35;;;;;;;19.29;64.08;100304.06;5089526;28;20043;-68
2022/12/31 00:49:37;;;;;;;3.88;1.10;;;;;;;19.49;60.27;100301.16;5089030;28;20035;-67
2022/12/31 00:52:02;;;;;;;3.15;1.20;;;;;;;19.38;62.23;100295.59;5089489;28;20464;-67
2022/12/31 00:54:28;;;;;;;7.25;1.33;;;;;;;19.10;64.50;100299.75;5089376;28;20027;-67
2022/12/31 00:56:53;;;;;;;8.15;1.65;;;;;;;19.85;61.52;100290.38;5096509;28;20031;-67
2022/12/31 00:59:18;;;;;;;3.42;1.00;;;;;;;20.38;57.77;100282.88;5100501;28;20021;-67
2022/12/31 01:01:44;;;;;;;7.05;1.60;;;;;;;19.11;64.41;100290.88;5090394;28;20031;-67
2022/12/31 01:04:13;;;;;;;5.72;1.00;;;;;;;19.19;63.72;100301.03;5091190;28;20063;-67
2022/12/31 01:06:38;;;;;;;7.05;1.25;;;;;;;19.65;59.34;100289.69;5092493;28;20130;-67
2022/12/31 01:09:05;;;;;;;5.88;1.00;;;;;;;19.11;64.10;100296.19;5091682;28;20182;-67
2022/12/31 01:11:31;;;;;;;5.72;1.30;;;;;;;19.46;63.26;100289.88;5113865;28;20035;-68
2022/12/31 01:13:58;;;;;;;8.80;2.15;;;;;;;20.33;59.41;100291.09;5113037;28;20027;-67
2022/12/31 01:16:27;;;;;;;3.95;1.30;;;;;;;20.92;55.71;100288.44;5108896;28;20031;-68
2022/12/31 01:18:53;;;;;;;9.13;1.52;;;;;;;20.81;56.17;100294.44;5109092;28;20016;-67
2022/12/31 01:21:20;;;;;;;5.63;1.02;;;;;;;20.23;57.51;100279.34;5109477;28;20107;-67
2022/12/31 01:23:45;;;;;;;3.67;1.02;;;;;;;19.35;60.88;100285.16;5092314;28;20076;-67
2022/12/31 01:26:13;;;;;;;8.18;1.30;;;;;;;20.03;59.97;100291.13;5123897;28;20031;-67
2022/12/31 01:28:39;;;;;;;5.82;1.25;;;;;;;20.08;59.09;100284.59;5127718;28;20467;-68
2022/12/31 01:31:07;;;;;;;7.60;1.45;;;;;;;21.12;53.87;100295.19;5090146;28;20068;-67
2022/12/31 01:33:33;;;;;;;4.38;1.30;;;;;;;20.80;54.21;100292.75;5091669;28;20113;-68
2022/12/31 01:36:07;;;;;;;4.63;1.60;;;;;;;20.33;56.61;100288.44;5095521;28;20051;-68
2022/12/31 01:38:34;;;;;;;3.45;1.10;;;;;;;20.17;58.14;100299.97;5113471;28;20035;-68
2022/12/31 01:41:00;;;;;;;4.17;1.03;;;;;;;19.60;60.52;100302.34;5094345;28;20034;-68
2022/12/31 01:44:21;;;;;;;5.35;1.27;;;;;;;19.21;59.97;100300.97;5134873;27;20031;-68
2022/12/31 01:46:59;;;;;;;6.78;1.80;;;;;;;20.01;58.22;100293.84;5014118;28;20536;-68
2022/12/31 01:49:51;;;;;;;3.78;0.90;;;;;;;19.53;59.38;100306.28;5075645;28;20031;-68
2022/12/31 01:52:25;;;;;;;5.38;0.90;;;;;;;19.59;57.65;100296.22;5094908;28;20427;-68
2022/12/31 01:55:04;;;;;;;2.38;0.80;;;;;;;19.89;58.73;100303.38;5095926;28;20080;-68
2022/12/31 01:57:30;;;;;;;5.13;0.93;;;;;;;19.40;59.49;100285.78;5111633;27;20059;-68
2022/12/31 01:59:58;;;;;;;9.10;1.53;;;;;;;19.88;57.19;100280.47;5103352;28;20054;-68
2022/12/31 02:02:24;;;;;;;7.93;1.02;;;;;;;19.73;57.57;100260.97;5095753;28;20144;-68
2022/12/31 02:04:54;;;;;;;5.28;1.10;;;;;;;19.93;56.45;100261.63;5096038;28;20136;-68
2022/12/31 02:07:19;;;;;;;2.88;0.90;;;;;;;20.36;56.28;100263.53;5094041;28;20028;-68
2022/12/31 02:09:45;;;;;;;2.37;0.97;;;;;;;18.35;62.20;100271.94;5093029;28;20026;-68
2022/12/31 02:12:10;;;;;;;7.30;1.00;;;;;;;19.75;57.49;100287.38;5125328;27;20550;-68
2022/12/31 02:14:43;;;;;;;7.80;1.10;;;;;;;19.22;60.46;100282.34;5122489;27;20027;-68
2022/12/31 02:17:11;;;;;;;;;;;;;;;20.39;54.46;100285.44;5096245;28;20030;-67
2022/12/31 02:20:14;;;;;;;5.82;1.50;;;;;;;21.00;52.92;100280.00;5095440;28;19927;-68
2022/12/31 02:22:58;;;;;;;8.65;1.83;;;;;;;20.23;54.60;100295.25;5093984;28;20031;-68
2022/12/31 02:25:57;;;;;;;2.13;0.88;;;;;;;20.07;54.97;100312.09;5113061;27;20379;-67
2022/12/31 02:28:48;;;;;;;6.83;1.13;;;;;;;19.92;55.40;100327.09;5108821;28;20070;-68
2022/12/31 02:31:49;;;;;;;9.25;0.80;;;;;;;20.06;56.43;100315.69;5074803;28;20379;-68
2022/12/31 02:34:26;;;;;;;3.93;0.93;;;;;;;20.40;54.83;100323.44;5074680;28;20024;-68
2022/12/31 02:36:56;;;;;;;4.37;1.33;;;;;;;20.11;55.10;100324.22;5113396;27;20394;-68
2022/12/31 02:39:21;;;;;;;5.53;1.10;;;;;;;18.85;58.76;100315.22;5117280;27;20031;-68
2022/12/31 02:41:48;;;;;;;10.83;1.30;;;;;;;19.42;57.81;100310.38;5112739;28;20031;-67
2022/12/31 02:44:28;;;;;;;4.37;1.00;;;;;;;19.21;59.04;100322.19;5093728;28;20020;-68
2022/12/31 02:47:07;;;;;;;6.17;1.27;;;;;;;19.20;59.45;100331.06;5094458;28;20020;-68
2022/12/31 02:49:55;;;;;;;7.80;1.17;;;;;;;20.00;56.11;100330.16;5093304;28;20440;-67
2022/12/31 02:52:48;;;;;;;5.57;0.97;;;;;;;19.29;59.49;100330.56;5108386;28;20387;-68
2022/12/31 02:55:29;;;;;;;4.90;1.40;;;;;;;19.13;58.65;100336.66;5077385;27;20554;-67
2022/12/31 02:58:17;;;;;;;6.83;1.37;;;;;;;19.70;57.29;100323.91;5114318;27;20608;-67
2022/12/31 03:03:37;;;;;;;12.07;1.60;;;;;;;19.83;55.42;100336.41;5110770;28;20054;-67
2022/12/31 03:06:04;;;;;;;10.00;1.57;;;;;;;19.48;56.31;100336.56;5112497;28;20046;-67
2022/12/31 03:08:30;;;;;;;7.53;1.50;;;;;;;18.71;59.58;100351.22;5094388;28;20130;-67
2022/12/31 03:10:55;;;;;;;8.87;1.73;;;;;;;19.46;58.32;100329.63;5118346;27;20402;-67
2022/12/31 03:13:24;;;;;;;8.93;1.33;;;;;;;19.42;55.64;100331.56;5108478;28;20127;-68
2022/12/31 03:15:49;;;;;;;8.07;1.20;;;;;;;19.73;56.94;100331.66;5113008;28;20383;-67
2022/12/31 03:18:17;;;;;;;6.53;1.27;;;;;;;18.35;60.26;100333.63;5093487;28;20042;-66
2022/12/31 03:23:39;;;;;;;4.95;1.08;;;;;;;19.36;57.44;100323.97;5112688;28;20119;-67
2022/12/31 03:26:11;;;;;;;5.22;0.90;;;;;;;18.18;60.11;100336.28;5103800;27;20024;-67
2022/12/31 03:28:38;;;;;;;9.00;2.30;;;;;;;18.35;60.96;100328.31;5097070;28;20581;-67
2022/12/31 03:31:04;;;;;;;6.80;1.00;;;;;;;18.87;58.10;100323.94;5109124;28;20027;-67
2022/12/31 03:33:32;;;;;;;10.80;1.27;;;;;;;19.21;56.13;100308.94;5092853;28;20386;-67
2022/12/31 03:36:01;;;;;;;1.83;0.60;;;;;;;19.77;55.18;100319.94;5111755;28;20024;-67
2022/12/31 03:38:26;;;;;;;8.20;1.30;;;;;;;19.32;56.34;100298.59;5091096;28;20035;-67
2022/12/31 03:40:52;;;;;;;11.27;1.10;;;;;;;20.14;53.86;100292.22;5090957;28;20022;-66
2022/12/31 03:43:18;;;;;;;5.73;0.90;;;;;;;19.36;56.11;100299.25;5092953;28;20548;-66
2022/12/31 03:45:48;;;;;;;5.53;0.63;;;;;;;19.27;54.83;100287.38;5109973;28;20386;-66
2022/12/31 03:48:13;;;;;;;5.07;1.00;;;;;;;19.25;55.86;100286.63;5092883;28;20031;-66
2022/12/31 03:50:38;;;;;;;5.20;1.10;;;;;;;20.27;53.45;100280.88;5093187;28;20035;-66
2022/12/31 03:53:04;;;;;;;7.63;1.50;;;;;;;20.23;52.35;100268.72;5130500;27;20505;-66
2022/12/31 03:55:30;;;;;;;5.93;1.00;;;;;;;20.26;52.32;100279.16;5119819;27;20391;-66
2022/12/31 03:57:55;;;;;;;7.70;1.00;;;;;;;19.24;55.06;100300.81;5113135;27;20031;-67
2022/12/31 04:00:21;;;;;;;6.97;0.93;;;;;;;20.74;50.99;100298.41;5115935;27;20403;-66
2022/12/31 04:02:48;;;;;;;2.47;0.80;;;;;;;20.00;52.76;100300.09;5093758;28;20144;-67
2022/12/31 04:05:14;;;;;;;8.00;1.00;;;;;;;20.25;52.84;100298.66;5108065;28;20028;-67
2022/12/31 04:07:40;;;;;;;5.83;1.30;;;;;;;20.58;50.20;100286.97;5109928;28;20085;-67
2022/12/31 04:10:08;;;;;;;9.00;1.67;;;;;;;20.03;51.80;100299.06;5090821;28;20524;-66
2022/12/31 04:12:34;;;;;;;8.33;1.50;;;;;;;20.28;51.80;100298.50;5093802;27;20482;-67
2022/12/31 04:14:59;;;;;;;5.27;1.17;;;;;;;20.45;51.11;100290.38;5126585;27;20124;-67
2022/12/31 04:17:25;;;;;;;5.87;1.40;;;;;;;19.70;53.16;100308.84;5111443;28;20031;-67
2022/12/31 04:19:50;;;;;;;6.57;2.37;;;;;;;20.75;50.03;100296.63;5092499;28;20031;-66
2022/12/31 04:22:16;;;;;;;5.07;1.50;;;;;;;20.80;50.61;100300.69;5090765;28;20402;-66
2022/12/31 04:24:42;;;;;;;10.83;1.83;;;;;;;20.08;51.79;100297.84;5088959;28;20035;-67
2022/12/31 04:27:09;;;;;;;7.43;1.60;;;;;;;19.83;53.29;100296.63;5098242;27;20038;-67
2022/12/31 04:29:34;;;;;;;5.33;1.63;;;;;;;20.82;50.54;100274.03;5111327;27;20031;-67
2022/12/31 04:32:00;;;;;;;7.80;1.80;;;;;;;19.78;52.10;100300.44;5113542;27;20036;-66
2022/12/31 04:34:26;;;;;;;4.30;1.90;;;;;;;19.40;54.22;100300.81;5118703;27;20032;-67
2022/12/31 04:36:51;;;;;;;7.20;2.10;;;;;;;20.27;51.78;100286.19;5108715;28;20060;-67
2022/12/31 04:39:17;;;;;;;6.40;2.30;;;;;;;19.95;52.53;100280.97;5107586;28;20036;-67
2022/12/31 04:41:42;;;;;;;9.23;2.53;;;;;;;19.69;53.95;100280.63;5112954;27;20042;-67
2022/12/31 04:44:08;;;;;;;8.97;3.30;;;;;;;20.20;52.02;100276.88;5131930;27;20526;-66
2022/12/31 04:46:33;;;;;;;8.70;3.13;;;;;;;20.14;51.70;100286.91;5115081;27;20036;-66
2022/12/31 04:48:59;;;;;;;9.13;3.20;;;;;;;20.60;51.23;100290.41;5088328;28;20096;-66
2022/12/31 04:51:27;;;;;;;5.50;3.93;;;;;;;20.31;51.41;100287.72;5109439;28;20050;-66
2022/12/31 04:53:52;;;;;;;9.20;3.57;;;;;;;20.22;52.58;100281.13;5092081;28;20045;-66
2022/12/31 04:56:18;;;;;;;5.73;3.60;;;;;;;19.59;53.69;100292.69;5094825;27;20035;-67
2022/12/31 04:58:44;;;;;;;6.83;3.57;;;;;;;20.26;53.13;100295.06;5102020;28;20028;-67
2022/12/31 05:01:10;;;;;;;6.80;3.67;;;;;;;20.24;51.84;100291.69;5088018;28;20044;-66
2022/12/31 05:03:36;;;;;;;7.53;3.60;;;;;;;20.29;54.04;100294.88;5088731;28;20161;-66
2022/12/31 05:06:05;;;;;;;4.27;3.70;;;;;;;20.20;54.47;100300.75;5090546;28;20123;-66
2022/12/31 05:08:30;;;;;;;4.47;3.53;;;;;;;20.00;54.77;100305.41;5088785;28;20113;-66
2022/12/31 05:10:56;;;;;;;4.93;2.87;;;;;;;19.52;57.54;100301.94;5085485;28;20133;-66
2022/12/31 05:13:23;;;;;;;3.20;2.50;;;;;;;20.48;53.32;100302.63;5096391;28;20046;-67
2022/12/31 05:15:48;;;;;;;3.15;1.98;;;;;;;19.53;56.65;100296.53;5088945;28;20117;-66
2022/12/31 05:18:13;;;;;;;2.43;2.07;;;;;;;19.98;57.11;100308.16;5086424;28;20070;-67
2022/12/31 05:20:39;;;;;;;1.70;1.40;;;;;;;20.00;56.42;100287.72;5089205;28;20107;-67
2022/12/31 05:23:05;;;;;;;2.50;1.00;;;;;;;19.07;60.52;100305.22;5088094;28;20410;-67
2022/12/31 05:25:32;;;;;;;0.90;0.70;;;;;;;20.14;56.98;100296.63;5092350;28;20484;-67
2022/12/31 05:27:57;;;;;;;0.60;0.60;;;;;;;19.20;61.44;100304.56;5109460;28;20032;-67
2022/12/31 05:30:23;;;;;;;1.85;0.70;;;;;;;19.13;59.74;100298.75;5092034;28;20058;-68
2022/12/31 05:32:49;;;;;;;1.33;0.68;;;;;;;19.75;59.90;100296.16;5085654;28;20020;-67
2022/12/31 05:35:15;;;;;;;2.03;0.60;;;;;;;19.19;63.19;100294.91;5090101;28;20039;-67
2022/12/31 05:37:40;;;;;;;0.50;0.50;;;;;;;20.09;59.01;100283.66;5089548;28;20028;-67
2022/12/31 05:40:06;;;;;;;0.40;0.40;;;;;;;19.76;61.84;100297.03;5088994;28;20148;-68
2022/12/31 05:42:32;;;;;;;0.47;0.47;;;;;;;19.38;61.96;100300.03;5109031;28;20039;-68
2022/12/31 05:44:57;;;;;;;0.50;0.40;;;;;;;20.31;58.44;100293.00;5087665;28;20094;-67
2022/12/31 05:47:23;;;;;;;0.30;0.30;;;;;;;19.64;61.04;100293.28;5088660;28;20095;-67
2022/12/31 05:49:48;;;;;;;0.98;0.65;;;;;;;20.24;59.28;100289.03;5088347;28;20520;-68
2022/12/31 05:52:14;;;;;;;0.40;0.40;;;;;;;20.46;57.03;100292.09;5087728;28;20036;-67
2022/12/31 05:54:39;;;;;;;1.67;0.60;;;;;;;20.09;58.87;100288.13;5090409;28;20034;-67
2022/12/31 05:57:05;;;;;;;0.60;0.60;;;;;;;19.48;62.92;100293.28;5106585;28;20130;-67
2022/12/31 05:59:31;;;;;;;0.50;0.50;;;;;;;19.52;64.15;100301.94;5110770;28;20054;-67
2022/12/31 06:01:56;;;;;;;1.03;0.80;;;;;;;19.72;62.40;100301.66;5093891;28;20031;-68
2022/12/31 06:04:22;;;;;;;1.08;0.90;;;;;;;19.36;61.08;100305.44;5109165;28;20036;-67
2022/12/31 06:06:48;;;;;;;1.00;1.00;;;;;;;19.62;63.04;100308.44;5091530;28;20036;-67
2022/12/31 06:09:14;;;;;;;1.45;1.20;;;;;;;19.81;64.26;100311.78;5092259;28;20031;-68
2022/12/31 06:11:40;;;;;;;1.80;1.40;;;;;;;20.26;61.87;100311.00;5094399;28;20028;-67
2022/12/31 06:14:05;;;;;;;1.70;1.60;;;;;;;20.53;58.68;100310.31;5090554;28;20031;-67
2022/12/31 06:16:30;;;;;;;1.80;1.70;;;;;;;19.17;67.02;100316.19;5089569;28;20404;-68
2022/12/31 06:18:56;;;;;;;3.87;2.57;;;;;;;19.12;65.40;100319.09;5091543;28;20406;-67
2022/12/31 06:21:21;;;;;;;3.35;2.78;;;;;;;18.24;71.62;100323.56;5093195;28;20494;-67
2022/12/31 06:23:47;;;;;;;4.55;3.15;;;;;;;19.74;66.98;100321.00;5095477;28;20068;-67
2022/12/31 06:26:14;;;;;;;3.33;2.67;;;;;;;19.13;66.76;100326.06;5095274;27;20023;-67
2022/12/31 06:28:40;;;;;;;4.57;2.97;;;;;;;19.67;67.19;100324.91;5111956;28;20474;-67
2022/12/31 06:31:08;;;;;;;3.85;3.13;;;;;;;19.21;69.06;100332.78;5093709;28;20039;-67
2022/12/31 06:33:34;;;;;;;2.78;2.58;;;;;;;19.74;68.54;100321.00;5095380;28;20432;-67
2022/12/31 06:36:02;;;;;;;3.20;2.67;;;;;;;19.13;71.45;100315.47;5112856;28;20027;-67
2022/12/31 06:38:30;;;;;;;3.13;2.80;;;;;;;19.01;72.54;100321.44;5113210;28;20547;-67
2022/12/31 06:40:55;;;;;;;3.42;2.60;;;;;;;18.90;76.21;100307.91;5100635;28;20118;-67
2022/12/31 06:43:21;;;;;;;5.22;2.03;;;;;;;19.36;71.07;100310.72;5094923;28;20130;-68
2022/12/31 06:45:47;;;;;;;2.00;1.63;;;;;;;19.81;69.21;100327.69;5094585;27;20070;-67
2022/12/31 06:48:12;;;;;;;3.65;1.50;;;;;;;18.98;74.27;100311.00;5100872;28;20028;-68
2022/12/31 06:50:39;;;;;;;1.40;1.30;;;;;;;19.23;74.02;100314.97;5092997;28;20027;-67
2022/12/31 06:53:04;;;;;;;2.08;1.17;;;;;;;19.42;72.35;100320.97;5094976;28;20411;-68
2022/12/31 06:55:30;;;;;;;1.70;1.08;;;;;;;19.54;72.04;100313.31;5093900;28;20031;-69
2022/12/31 06:57:56;;;;;;;2.08;0.90;;;;;;;19.25;72.97;100310.47;5113298;28;20043;-67
2022/12/31 07:00:22;;;;;;;1.33;0.88;;;;;;;18.94;78.37;100320.06;5095738;28;20064;-68
2022/12/31 07:03:02;;;;;;;0.80;0.70;;;;;;;19.63;73.01;100318.06;5091760;28;20054;-68
2022/12/31 07:05:37;;;;;;;0.57;0.57;;;;;;;19.39;72.92;100342.34;5106067;27;20047;-68
2022/12/31 07:08:21;;;;;;;1.73;0.57;;;;;;;19.71;74.59;100323.81;5095540;28;20508;-68
2022/12/31 07:11:06;;;;;;;2.20;0.70;;;;;;;19.26;78.17;100330.72;5092889;28;20061;-67
2022/12/31 07:13:44;;;;;;;2.17;0.40;;;;;;;19.26;81.38;100330.72;5092637;28;20031;-68
2022/12/31 07:16:22;;;;;;;0.40;0.40;;;;;;;19.66;76.44;100325.88;5092149;28;20035;-68
2022/12/31 07:19:11;;;;;;;0.52;0.50;;;;;;;19.92;73.97;100339.47;5112329;28;20405;-68
2022/12/31 07:21:39;;;;;;;0.45;0.45;;;;;;;19.82;74.44;100355.06;5109147;27;20509;-67
2022/12/31 07:24:06;;;;;;;4.60;1.48;;;;;;;19.66;73.11;100347.09;5110408;27;20072;-67
2022/12/31 07:26:59;;;;;;;2.53;0.60;;;;;;;19.95;75.55;100339.31;5112351;28;20120;-68
2022/12/31 07:29:41;;;;;;;3.38;0.63;;;;;;;19.10;78.16;100355.38;5093656;28;20026;-68
2022/12/31 07:32:32;;;;;;;1.52;0.98;;;;;;;19.54;74.02;100334.50;5110789;28;20027;-67
2022/12/31 07:35:26;;;;;;;1.77;0.95;;;;;;;20.46;70.38;100342.53;5113737;27;20479;-67
2022/12/31 07:38:17;;;;;;;1.98;0.90;;;;;;;19.14;75.86;100354.28;5105091;28;20527;-67
2022/12/31 07:41:24;;;;;;;3.25;0.90;;;;;;;20.11;71.99;100355.19;5087535;27;20039;-68
2022/12/31 07:44:08;;;;;;;3.22;1.10;;;;;;;20.80;66.67;100344.97;5092251;28;20043;-68
2022/12/31 07:46:52;;;;;;;1.42;1.33;;;;;;;19.61;74.12;100334.06;5085891;28;20027;-67
2022/12/31 07:49:17;;;;;;;0.65;0.65;;;;;;;19.41;72.46;100340.50;5093676;28;20024;-68
2022/12/31 07:51:43;;;;;;;3.15;0.93;;;;;;;20.02;70.03;100340.66;5110745;28;20051;-68
2022/12/31 07:54:08;;;;;;;1.77;1.15;;;;;;;19.63;75.29;100349.88;5102747;27;20482;-67
2022/12/31 07:56:34;;;;;;;3.83;0.85;;;;;;;19.81;69.98;100353.34;5102294;28;20039;-68
2022/12/31 07:59:18;;;;;;;1.75;1.38;;;;;;;19.46;74.14;100354.31;5109544;27;20043;-67
2022/12/31 08:01:54;;;;;;;1.70;0.50;;;;;;;20.10;67.12;100354.34;5092615;28;20036;-68
2022/12/31 08:04:38;;;;;;;1.85;0.85;;;;;;;19.55;73.60;100347.69;5111829;28;20490;-67
2022/12/31 08:07:38;;;;;;;1.75;0.70;;;;;;;20.12;68.88;100378.13;5091146;28;20031;-68
2022/12/31 08:10:27;;;;;;;5.60;0.75;;;;;;;20.03;68.93;100371.56;5093735;28;20034;-68
2022/12/31 08:13:01;;;;;;;2.03;0.68;;;;;;;20.64;64.93;100384.84;5111288;28;20016;-68
2022/12/31 08:15:27;;;;;;;1.70;0.50;;;;;;;20.73;64.30;100389.66;5102105;28;20548;-69
2022/12/31 08:17:52;;;;;;;1.95;0.70;;;;;;;20.31;68.02;100410.63;5101292;27;20093;-68
2022/12/31 08:20:18;;;;;;;3.08;0.60;;;;;;;19.69;69.43;100418.50;5093656;28;20486;-69
2022/12/31 08:23:04;;;;;;;6.47;0.90;;;;;;;19.31;69.82;100416.09;5112519;27;20035;-67
2022/12/31 08:25:39;;;;;;;5.25;0.77;;;;;;;20.25;71.83;100415.41;5113628;27;20031;-68
2022/12/31 08:28:26;;;;;;;2.45;0.90;;;;;;;19.62;70.85;100422.44;5090379;28;20110;-68
2022/12/31 08:31:03;;;;;;;2.03;0.50;;;;;;;18.86;76.51;100430.78;5086326;28;20123;-68
2022/12/31 08:33:37;;;;;;;2.42;0.70;;;;;;;19.57;72.03;100435.06;5090017;28;20028;-68
2022/12/31 08:36:14;;;;;;;3.53;0.73;;;;;;;20.39;69.25;100434.06;5111353;27;20073;-68
2022/12/31 08:39:07;;;;;;;5.38;2.55;;;;;;;19.67;72.27;100441.56;5111450;28;20028;-68
2022/12/31 08:41:40;;;;;;;6.60;3.50;;;;;;;18.99;78.27;100450.44;5091813;28;20080;-68
2022/12/31 08:44:24;;;;;;;14.10;8.23;;;;;;;19.99;71.91;100462.88;5105443;28;20110;-68
2022/12/31 08:47:02;;;;;;;7.20;1.40;;;;;;;20.63;67.08;100462.78;5084731;28;20612;-67
2022/12/31 08:49:30;;;;;;;8.05;2.63;;;;;;;20.48;66.64;100454.78;5107473;28;20502;-67
2022/12/31 08:51:56;;;;;;;7.18;1.50;;;;;;;20.28;67.12;100479.78;5098489;27;20023;-67
2022/12/31 08:54:21;;;;;;;9.98;2.42;;;;;;;20.19;69.93;100479.47;5083313;28;20035;-67
2022/12/31 08:57:16;;;;;;;6.18;2.42;;;;;;;19.85;72.13;100476.84;5089948;28;20096;-68
2022/12/31 09:00:05;;;;;;;14.38;3.03;;;;;;;20.54;65.62;100466.84;5078227;27;20047;-67
2022/12/31 09:03:08;;;;;;;8.18;1.95;;;;;;;20.43;70.53;100470.13;5106154;28;20667;-67
2022/12/31 09:05:56;;;;;;;14.52;5.00;;;;;;;20.36;68.34;100474.06;5103808;28;20051;-67
2022/12/31 09:08:34;;;;;;;9.65;3.08;;;;;;;21.02;63.47;100464.09;5112510;28;20023;-67
2022/12/31 09:11:21;;;;;;;3.78;1.35;;;;;;;19.98;69.10;100471.75;5110401;28;20493;-67
2022/12/31 09:14:04;;;;;;;10.52;5.05;;;;;;;20.15;67.16;100469.03;5104217;28;20051;-67
2022/12/31 09:16:48;;;;;;;6.45;1.00;;;;;;;20.04;70.13;100482.00;5094494;28;20085;-66
2022/12/31 09:19:14;;;;;;;6.40;1.52;;;;;;;20.62;67.29;100467.25;5101669;28;20031;-67
2022/12/31 09:21:45;;;;;;;2.50;1.30;;;;;;;19.62;71.54;100470.13;5099959;28;20038;-68
2022/12/31 09:24:13;;;;;;;6.05;1.60;;;;;;;20.80;66.85;100465.34;5096099;28;20104;-67
2022/12/31 09:26:53;;;;;;;5.35;1.20;;;;;;;20.62;68.05;100474.34;5090379;28;20039;-67
2022/12/31 09:30:04;;;;;;;5.20;1.27;;;;;;;20.72;63.91;100472.94;5089501;28;20023;-68
2022/12/31 09:32:43;;;;;;;8.32;1.63;;;;;;;21.74;61.06;100487.25;4990673;28;20107;-68
2022/12/31 09:35:46;;;;;;;6.22;1.58;;;;;;;20.36;67.40;100492.66;5086665;28;20076;-67
2022/12/31 09:38:26;;;;;;;4.32;1.10;;;;;;;20.81;66.11;100492.75;5091157;28;20057;-68
2022/12/31 09:41:21;;;;;;;6.15;1.17;;;;;;;20.55;66.47;100496.91;5089304;28;20115;-68
2022/12/31 09:44:28;;;;;;;2.38;1.27;;;;;;;20.64;67.98;100501.69;5033131;28;20049;-67
2022/12/31 09:47:06;;;;;;;6.05;1.35;;;;;;;19.92;71.20;100511.84;5106071;28;20019;-68
2022/12/31 09:50:25;;;;;;;4.20;1.33;;;;;;;19.91;72.09;100500.41;5109997;28;20051;-68
2022/12/31 09:53:07;;;;;;;3.35;1.10;;;;;;;20.94;67.33;100507.03;5024620;28;20036;-67
2022/12/31 09:55:38;;;;;;;3.20;1.00;;;;;;;21.16;65.12;100514.59;5033822;28;20083;-68
2022/12/31 09:58:34;;;;;;;4.78;1.40;;;;;;;21.10;67.26;100511.44;5062900;28;20027;-68
2022/12/31 10:01:11;;;;;;;4.60;1.00;;;;;;;20.56;69.66;100517.19;5056630;28;20083;-67
2022/12/31 10:04:01;;;;;;;6.05;1.23;;;;;;;20.65;69.04;100514.88;5094774;28;20100;-68
2022/12/31 10:06:35;;;;;;;5.25;1.25;;;;;;;19.98;74.57;100516.84;5099731;28;20031;-68
2022/12/31 10:09:26;;;;;;;4.70;1.23;;;;;;;20.66;71.46;100515.72;5099988;27;20031;-68
2022/12/31 10:12:10;;;;;;;3.95;1.27;;;;;;;19.95;82.36;100519.66;5101065;27;20031;-68
2022/12/31 10:14:56;;;;;;;4.35;1.50;;;;;;;20.46;77.06;100525.69;5111955;27;20035;-67
2022/12/31 10:17:41;;;;;;;4.80;1.20;;;;;;;20.60;72.15;100516.94;5111874;27;20433;-67
2022/12/31 10:20:09;;;;;;;5.15;1.70;;;;;;;20.62;71.78;100522.16;5111639;28;20038;-67
2022/12/31 10:22:53;;;;;;;6.63;1.40;;;;;;;20.74;75.61;100521.47;5094350;28;20036;-67
2022/12/31 10:25:45;;;;;;;5.32;1.30;;;;;;;20.31;73.33;100522.09;5095753;27;20030;-68
2022/12/31 10:28:13;;;;;;;3.72;1.52;;;;;;;21.09;70.96;100518.56;5114274;27;20050;-67
2022/12/31 10:30:47;;;;;;;3.78;1.38;;;;;;;20.17;76.59;100530.81;5105376;28;20436;-67
2022/12/31 10:33:33;;;;;;;4.22;1.33;;;;;;;20.79;71.60;100514.09;5091662;28;20197;-67
2022/12/31 10:36:08;;;;;;;5.93;1.38;;;;;;;21.02;71.16;100530.53;5074701;28;20110;-67
2022/12/31 10:38:49;;;;;;;3.13;1.27;;;;;;;21.75;67.17;100537.69;5106249;27;20064;-68
2022/12/31 10:41:47;;;;;;;8.70;1.75;;;;;;;21.69;66.52;100540.72;5094435;28;20031;-67
2022/12/31 10:44:45;;;;;;;3.67;1.90;;;;;;;20.77;70.24;100537.25;5095061;28;20127;-66
2022/12/31 10:47:13;;;;;;;8.75;2.50;;;;;;;21.49;66.81;100540.09;5094500;28;20027;-66
2022/12/31 10:50:09;;;;;;;4.15;1.50;;;;;;;20.94;70.20;100540.75;5109772;28;20036;-67
2022/12/31 10:52:53;;;;;;;8.15;2.20;;;;;;;22.35;61.31;100551.72;5090091;28;20489;-67
2022/12/31 10:55:40;;;;;;;3.15;1.35;;;;;;;20.70;69.88;100546.50;5095604;28;20028;-67
2022/12/31 10:58:23;;;;;;;4.47;1.50;;;;;;;20.58;74.93;100541.84;5113197;27;20050;-67
2022/12/31 11:00:59;;;;;;;6.95;1.50;;;;;;;20.98;72.62;100555.56;5086652;28;20048;-68
2022/12/31 11:03:51;;;;;;;7.05;2.50;;;;;;;20.11;83.69;100547.06;5111927;28;20040;-67
2022/12/31 11:06:34;;;;;;;3.17;1.60;;;;;;;20.83;78.05;100555.47;5073914;28;20061;-67
2022/12/31 11:09:18;;;;;;;3.83;1.80;;;;;;;21.19;72.75;100550.78;5093477;28;20031;-67
2022/12/31 11:11:55;;;;;;;4.25;1.70;;;;;;;20.59;75.60;100540.91;5096050;28;20035;-67
2022/12/31 11:14:39;;;;;;;7.35;3.60;;;;;;;21.21;71.67;100526.75;5115071;27;20482;-67
2022/12/31 11:17:19;;;;;;;4.53;2.47;;;;;;;21.95;69.17;100538.25;5090991;28;20131;-66
2022/12/31 11:19:57;;;;;;;3.35;1.48;;;;;;;21.32;71.45;100550.88;5112114;27;20019;-67
2022/12/31 11:22:40;;;;;;;4.03;1.60;;;;;;;21.08;74.15;100535.47;5110237;27;20520;-69
2022/12/31 11:25:21;;;;;;;5.57;1.77;;;;;;;20.92;71.28;100545.25;5107785;28;20103;-69
2022/12/31 11:28:17;;;;;;;5.40;1.70;;;;;;;21.51;68.74;100551.53;5114972;27;20059;-67
2022/12/31 11:30:52;;;;;;;6.85;2.50;;;;;;;21.45;68.61;100557.19;5091625;28;20023;-68
2022/12/31 11:34:02;;;;;;;7.28;2.30;;;;;;;21.30;69.44;100543.00;5078459;27;20031;-67
2022/12/31 11:36:39;;;;;;;8.10;1.85;;;;;;;20.15;77.67;100542.44;5090502;27;20034;-67
2022/12/31 11:39:27;;;;;;;6.75;1.90;;;;;;;20.89;67.61;100527.69;5091715;28;20038;-69
2022/12/31 11:42:25;;;;;;;5.10;2.42;;;;;;;20.92;71.86;100532.81;5098557;28;20126;-69
2022/12/31 11:45:11;;;;;;;7.70;2.42;;;;;;;21.12;68.29;100529.00;5073087;28;20020;-67
2022/12/31 11:47:57;;;;;;;4.13;1.55;;;;;;;20.82;70.31;100529.84;5111760;27;20023;-68
2022/12/31 11:50:29;;;;;;;7.00;2.03;;;;;;;21.65;67.01;100525.91;5098564;28;20486;-69
2022/12/31 11:53:30;;;;;;;4.50;1.90;;;;;;;21.89;63.47;100517.38;5102976;28;20459;-69
2022/12/31 11:55:59;;;;;;;4.93;2.35;;;;;;;21.23;66.43;100524.88;5048840;28;20062;-68
2022/12/31 11:58:27;;;;;;;10.65;2.22;;;;;;;21.29;66.92;100525.34;5102229;28;20028;-66
2022/12/31 12:01:05;;;;;;;4.75;2.30;;;;;;;20.74;70.83;100524.13;5113571;27;20118;-68